createdAt,value
2019-02-19T00:00:57.597Z,0.00
2019-02-19T00:01:57.870Z,0.00
2019-02-19T00:02:57.577Z,0.00
2019-02-19T00:03:57.561Z,0.00
2019-02-19T00:04:57.552Z,0.00
2019-02-19T00:05:57.543Z,0.00
2019-02-19T00:06:57.628Z,0.00
2019-02-19T00:07:57.528Z,0.00
2019-02-19T00:08:57.515Z,0.00
2019-02-19T00:09:57.497Z,0.00
2019-02-19T00:10:57.483Z,0.00
2019-02-19T00:11:57.472Z,0.00
2019-02-19T00:12:57.472Z,0.00
2019-02-19T00:13:57.556Z,0.00
2019-02-19T00:14:57.442Z,0.00
2019-02-19T00:15:57.432Z,0.00
2019-02-19T00:16:57.422Z,0.00
2019-02-19T00:17:57.411Z,0.00
2019-02-19T00:18:57.403Z,0.00
2019-02-19T00:19:57.388Z,0.00
2019-02-19T00:20:57.382Z,0.00
2019-02-19T00:21:57.366Z,0.00
2019-02-19T00:22:57.353Z,0.00
2019-02-19T00:23:57.345Z,0.00
2019-02-19T00:24:57.338Z,0.00
2019-02-19T00:25:57.327Z,0.00
2019-02-19T00:26:57.318Z,0.00
2019-02-19T00:27:57.301Z,0.00
2019-02-19T00:28:57.289Z,0.00
2019-02-19T00:29:57.284Z,0.00
2019-02-19T00:30:57.266Z,0.00
2019-02-19T00:31:57.262Z,0.00
2019-02-19T00:32:57.246Z,0.00
2019-02-19T00:33:57.240Z,0.00
2019-02-19T00:34:57.224Z,0.00
2019-02-19T00:35:57.210Z,0.00
2019-02-19T00:36:57.209Z,0.00
2019-02-19T00:37:57.190Z,0.00
2019-02-19T00:38:57.188Z,0.00
2019-02-19T00:39:57.171Z,0.00
2019-02-19T00:40:57.160Z,0.00
2019-02-19T00:41:57.149Z,0.00
2019-02-19T00:42:57.138Z,0.00
2019-02-19T00:43:57.133Z,0.00
2019-02-19T00:44:57.120Z,0.00
2019-02-19T00:45:57.109Z,0.00
2019-02-19T00:46:57.095Z,0.00
2019-02-19T00:47:57.086Z,0.00
2019-02-19T00:48:57.072Z,0.00
2019-02-19T00:49:57.063Z,0.00
2019-02-19T00:50:57.056Z,0.00
2019-02-19T00:51:57.045Z,0.00
2019-02-19T00:52:57.026Z,0.00
2019-02-19T00:53:57.014Z,0.00
2019-02-19T00:54:57.042Z,0.00
2019-02-19T00:55:56.994Z,0.00
2019-02-19T00:56:56.984Z,0.00
2019-02-19T00:57:56.981Z,0.00
2019-02-19T00:58:56.963Z,0.00
2019-02-19T00:59:56.958Z,0.00
2019-02-19T01:00:56.940Z,0.00
2019-02-19T01:01:56.927Z,0.00
2019-02-19T01:02:56.923Z,0.00
2019-02-19T01:03:56.908Z,0.00
2019-02-19T01:04:56.901Z,0.00
2019-02-19T01:05:56.890Z,0.00
2019-02-19T01:06:56.875Z,0.00
2019-02-19T01:07:56.872Z,0.00
2019-02-19T01:08:56.962Z,0.00
2019-02-19T01:09:56.847Z,0.00
2019-02-19T01:10:56.834Z,0.00
2019-02-19T01:11:56.821Z,0.00
2019-02-19T01:12:56.815Z,0.00
2019-02-19T01:13:56.800Z,0.00
2019-02-19T01:14:56.898Z,0.00
2019-02-19T01:15:56.778Z,0.00
2019-02-19T01:16:56.774Z,0.00
2019-02-19T01:17:56.865Z,0.00
2019-02-19T01:18:56.748Z,0.00
2019-02-19T01:19:56.734Z,0.00
2019-02-19T01:20:56.724Z,0.00
2019-02-19T01:21:56.714Z,0.00
2019-02-19T01:22:56.704Z,0.00
2019-02-19T01:23:56.693Z,0.00
2019-02-19T01:24:56.681Z,0.00
2019-02-19T01:25:56.668Z,0.00
2019-02-19T01:26:56.658Z,0.00
2019-02-19T01:27:56.650Z,0.00
2019-02-19T01:28:58.334Z,0.00
2019-02-19T01:29:56.625Z,0.00
2019-02-19T01:30:56.617Z,0.00
2019-02-19T01:31:56.610Z,0.00
2019-02-19T01:32:56.595Z,0.00
2019-02-19T01:33:56.588Z,0.00
2019-02-19T01:34:56.573Z,0.00
2019-02-19T01:35:56.565Z,0.00
2019-02-19T01:36:56.549Z,0.00
2019-02-19T01:37:56.543Z,0.00
2019-02-19T01:38:56.530Z,0.00
2019-02-19T01:39:56.520Z,0.00
2019-02-19T01:40:56.508Z,0.00
2019-02-19T01:41:56.493Z,0.00
2019-02-19T01:42:56.485Z,0.00
2019-02-19T01:43:56.472Z,0.00
2019-02-19T01:44:56.465Z,4.00
2019-02-19T01:45:56.453Z,4.00
2019-02-19T01:46:56.445Z,4.00
2019-02-19T01:47:56.434Z,4.00
2019-02-19T01:48:56.423Z,4.00
2019-02-19T01:49:56.411Z,4.00
2019-02-19T01:50:56.399Z,4.00
2019-02-19T01:51:56.388Z,8.00
2019-02-19T01:52:56.375Z,12.00
2019-02-19T01:53:56.368Z,12.00
2019-02-19T01:54:56.361Z,16.00
2019-02-19T01:55:56.349Z,20.00
2019-02-19T01:56:56.338Z,20.00
2019-02-19T01:57:56.325Z,28.00
2019-02-19T01:58:56.314Z,32.00
2019-02-19T01:59:56.305Z,40.00
2019-02-19T02:00:56.293Z,48.00
2019-02-19T02:01:56.282Z,52.00
2019-02-19T02:02:56.279Z,60.00
2019-02-19T02:03:56.258Z,68.00
2019-02-19T02:04:56.247Z,80.00
2019-02-19T02:05:56.237Z,88.00
2019-02-19T02:06:56.224Z,100.00
2019-02-19T02:07:56.213Z,112.00
2019-02-19T02:08:56.206Z,128.00
2019-02-19T02:09:56.292Z,144.00
2019-02-19T02:10:56.183Z,164.00
2019-02-19T02:11:56.169Z,184.00
2019-02-19T02:12:56.161Z,212.00
2019-02-19T02:13:56.150Z,244.00
2019-02-19T02:14:56.140Z,272.00
2019-02-19T02:15:56.127Z,308.00
2019-02-19T02:16:56.120Z,348.00
2019-02-19T02:17:56.104Z,392.00
2019-02-19T02:18:56.095Z,444.00
2019-02-19T02:19:56.084Z,504.00
2019-02-19T02:20:56.077Z,708.00
2019-02-19T02:21:56.061Z,1064.00
2019-02-19T02:22:56.050Z,1224.00
2019-02-19T02:23:56.039Z,1356.00
2019-02-19T02:24:56.032Z,1488.00
2019-02-19T02:25:56.021Z,1604.00
2019-02-19T02:26:56.005Z,1884.00
2019-02-19T02:27:55.997Z,2244.00
2019-02-19T02:28:55.986Z,2640.00
2019-02-19T02:29:55.974Z,2992.00
2019-02-19T02:30:55.963Z,3268.00
2019-02-19T02:31:55.956Z,3284.00
2019-02-19T02:32:55.946Z,2992.00
2019-02-19T02:33:55.933Z,2812.00
2019-02-19T02:34:55.926Z,2300.00
2019-02-19T02:35:56.010Z,2376.00
2019-02-19T02:36:55.899Z,3196.00
2019-02-19T02:37:55.888Z,4376.00
2019-02-19T02:38:55.979Z,4756.00
2019-02-19T02:39:55.878Z,4860.00
2019-02-19T02:40:55.860Z,3836.00
2019-02-19T02:41:55.852Z,2768.00
2019-02-19T02:42:55.842Z,2712.00
2019-02-19T02:43:55.832Z,2936.00
2019-02-19T02:44:55.817Z,3000.00
2019-02-19T02:45:55.805Z,3280.00
2019-02-19T02:46:55.833Z,3612.00
2019-02-19T02:47:55.784Z,3784.00
2019-02-19T02:48:55.776Z,3920.00
2019-02-19T02:49:55.773Z,4048.00
2019-02-19T02:50:55.760Z,4156.00
2019-02-19T02:51:55.742Z,4256.00
2019-02-19T02:52:55.731Z,4368.00
2019-02-19T02:53:55.728Z,4488.00
2019-02-19T02:54:55.706Z,4580.00
2019-02-19T02:55:55.697Z,4692.00
2019-02-19T02:56:55.683Z,4804.00
2019-02-19T02:57:55.671Z,4916.00
2019-02-19T02:58:55.664Z,4968.00
2019-02-19T02:59:55.651Z,4468.00
2019-02-19T03:00:55.642Z,4396.00
2019-02-19T03:01:55.638Z,3732.00
2019-02-19T03:02:55.622Z,3540.00
2019-02-19T03:03:55.613Z,3444.00
2019-02-19T03:04:55.599Z,3440.00
2019-02-19T03:05:55.687Z,3496.00
2019-02-19T03:06:55.572Z,3504.00
2019-02-19T03:07:55.568Z,3552.00
2019-02-19T03:08:55.553Z,3596.00
2019-02-19T03:09:55.544Z,3636.00
2019-02-19T03:10:55.628Z,3652.00
2019-02-19T03:11:55.532Z,3644.00
2019-02-19T03:12:55.506Z,3616.00
2019-02-19T03:13:55.504Z,3580.00
2019-02-19T03:14:55.495Z,3544.00
2019-02-19T03:16:02.284Z,3524.00
2019-02-19T03:16:56.578Z,3524.00
2019-02-19T03:17:55.458Z,3520.00
2019-02-19T03:18:55.445Z,3524.00
2019-02-19T03:19:55.431Z,3512.00
2019-02-19T03:20:55.422Z,3480.00
2019-02-19T03:21:55.407Z,3472.00
2019-02-19T03:22:55.405Z,3484.00
2019-02-19T03:23:55.386Z,3516.00
2019-02-19T03:24:55.380Z,3568.00
2019-02-19T03:25:55.369Z,3608.00
2019-02-19T03:26:55.361Z,3548.00
2019-02-19T03:27:55.346Z,3512.00
2019-02-19T03:28:55.338Z,3504.00
2019-02-19T03:29:55.325Z,3488.00
2019-02-19T03:30:55.326Z,3444.00
2019-02-19T03:31:55.303Z,3456.00
2019-02-19T03:32:55.295Z,3480.00
2019-02-19T03:33:55.279Z,3532.00
2019-02-19T03:34:55.267Z,3556.00
2019-02-19T03:35:55.257Z,3592.00
2019-02-19T03:36:55.244Z,3632.00
2019-02-19T03:37:55.239Z,3672.00
2019-02-19T03:38:55.229Z,3744.00
2019-02-19T03:39:55.213Z,3868.00
2019-02-19T03:40:55.201Z,4048.00
2019-02-19T03:41:55.189Z,4272.00
2019-02-19T03:42:55.183Z,4492.00
2019-02-19T03:43:55.173Z,4684.00
2019-02-19T03:44:55.159Z,4780.00
2019-02-19T03:45:55.146Z,4788.00
2019-02-19T03:46:55.132Z,4776.00
2019-02-19T03:47:55.130Z,5364.00
2019-02-19T03:48:55.118Z,5060.00
2019-02-19T03:49:55.109Z,4864.00
2019-02-19T03:50:55.097Z,4732.00
2019-02-19T03:51:55.084Z,4972.00
2019-02-19T03:52:55.071Z,5420.00
2019-02-19T03:53:55.061Z,5640.00
2019-02-19T03:54:55.063Z,6032.00
2019-02-19T03:55:55.043Z,5292.00
2019-02-19T03:56:55.029Z,5260.00
2019-02-19T03:57:55.018Z,5140.00
2019-02-19T03:58:55.012Z,5108.00
2019-02-19T03:59:54.997Z,5148.00
2019-02-19T04:00:54.986Z,5264.00
2019-02-19T04:01:54.976Z,5588.00
2019-02-19T04:02:54.967Z,6024.00
2019-02-19T04:03:54.953Z,6404.00
2019-02-19T04:04:54.951Z,6576.00
2019-02-19T04:05:54.933Z,6764.00
2019-02-19T04:06:55.477Z,6968.00
2019-02-19T04:07:54.911Z,6384.00
2019-02-19T04:08:54.903Z,6952.00
2019-02-19T04:09:54.901Z,7480.00
2019-02-19T04:10:54.880Z,7888.00
2019-02-19T04:11:54.869Z,8128.00
2019-02-19T04:12:54.859Z,7468.00
2019-02-19T04:13:54.848Z,8176.00
2019-02-19T04:14:54.840Z,8316.00
2019-02-19T04:15:54.827Z,7024.00
2019-02-19T04:16:54.821Z,7976.00
2019-02-19T04:17:54.810Z,7952.00
2019-02-19T04:18:54.801Z,7644.00
2019-02-19T04:19:54.788Z,7348.00
2019-02-19T04:20:54.778Z,7448.00
2019-02-19T04:21:54.766Z,7112.00
2019-02-19T04:22:54.757Z,7504.00
2019-02-19T04:23:54.747Z,7500.00
2019-02-19T04:24:54.732Z,7420.00
2019-02-19T04:25:54.724Z,7380.00
2019-02-19T04:26:54.760Z,7280.00
2019-02-19T04:27:54.703Z,7240.00
2019-02-19T04:28:54.691Z,7152.00
2019-02-19T04:29:54.693Z,6084.00
2019-02-19T04:30:54.671Z,5532.00
2019-02-19T04:31:54.665Z,5452.00
2019-02-19T04:32:54.648Z,5300.00
2019-02-19T04:33:54.648Z,5244.00
2019-02-19T04:34:54.639Z,5132.00
2019-02-19T04:35:54.618Z,5664.00
2019-02-19T04:36:54.615Z,5316.00
2019-02-19T04:37:54.599Z,5288.00
2019-02-19T04:38:54.586Z,5764.00
2019-02-19T04:39:54.586Z,5724.00
2019-02-19T04:40:54.563Z,6384.00
2019-02-19T04:41:54.553Z,6572.00
2019-02-19T04:42:54.543Z,5672.00
2019-02-19T04:43:54.533Z,5996.00
2019-02-19T04:44:54.521Z,5740.00
2019-02-19T04:45:54.509Z,5836.00
2019-02-19T04:46:54.499Z,6492.00
2019-02-19T04:47:54.500Z,6752.00
2019-02-19T04:48:54.477Z,6888.00
2019-02-19T04:49:54.471Z,6912.00
2019-02-19T04:50:54.463Z,6912.00
2019-02-19T04:51:54.446Z,6480.00
2019-02-19T04:52:54.442Z,6812.00
2019-02-19T04:53:54.424Z,6848.00
2019-02-19T04:54:54.417Z,6340.00
2019-02-19T04:55:54.397Z,6284.00
2019-02-19T04:56:54.391Z,5964.00
2019-02-19T04:57:54.387Z,6204.00
2019-02-19T04:58:54.364Z,6112.00
2019-02-19T04:59:54.354Z,5900.00
2019-02-19T05:00:54.342Z,5816.00
2019-02-19T05:01:54.334Z,6032.00
2019-02-19T05:02:54.322Z,6292.00
2019-02-19T05:03:54.309Z,6304.00
2019-02-19T05:04:54.299Z,6104.00
2019-02-19T05:05:54.288Z,6340.00
2019-02-19T05:06:54.289Z,6700.00
2019-02-19T05:07:54.367Z,6852.00
2019-02-19T05:08:54.252Z,6764.00
2019-02-19T05:09:54.244Z,6488.00
2019-02-19T05:10:54.233Z,6248.00
2019-02-19T05:11:54.226Z,5880.00
2019-02-19T05:12:54.214Z,5824.00
2019-02-19T05:13:54.198Z,6104.00
2019-02-19T05:14:54.192Z,6152.00
2019-02-19T05:15:54.180Z,5812.00
2019-02-19T05:16:54.163Z,5740.00
2019-02-19T05:17:54.159Z,5536.00
2019-02-19T05:18:54.147Z,5424.00
2019-02-19T05:19:54.170Z,5392.00
2019-02-19T05:20:54.129Z,5428.00
2019-02-19T05:21:54.113Z,5436.00
2019-02-19T05:22:54.118Z,5764.00
2019-02-19T05:23:54.093Z,6072.00
2019-02-19T05:24:54.078Z,6264.00
2019-02-19T05:25:54.072Z,6476.00
2019-02-19T05:26:54.062Z,6632.00
2019-02-19T05:27:54.050Z,6752.00
2019-02-19T05:28:54.042Z,6868.00
2019-02-19T05:29:54.028Z,6884.00
2019-02-19T05:30:54.018Z,6836.00
2019-02-19T05:31:54.004Z,6716.00
2019-02-19T05:32:53.995Z,6584.00
2019-02-19T05:33:53.995Z,6464.00
2019-02-19T05:34:53.972Z,6368.00
2019-02-19T05:35:53.962Z,6284.00
2019-02-19T05:36:53.953Z,6204.00
2019-02-19T05:37:53.941Z,6128.00
2019-02-19T05:38:53.930Z,6072.00
2019-02-19T05:39:53.918Z,6036.00
2019-02-19T05:40:53.909Z,6012.00
2019-02-19T05:41:53.898Z,5996.00
2019-02-19T05:42:53.882Z,5980.00
2019-02-19T05:43:53.868Z,5980.00
2019-02-19T05:44:53.861Z,5980.00
2019-02-19T05:45:53.849Z,5972.00
2019-02-19T05:46:53.841Z,5944.00
2019-02-19T05:47:53.828Z,5908.00
2019-02-19T05:48:53.821Z,5856.00
2019-02-19T05:49:53.806Z,5812.00
2019-02-19T05:50:53.796Z,5764.00
2019-02-19T05:51:53.789Z,5708.00
2019-02-19T05:52:53.772Z,5656.00
2019-02-19T05:53:53.764Z,5612.00
2019-02-19T05:54:53.770Z,5564.00
2019-02-19T05:55:53.743Z,5532.00
2019-02-19T05:56:53.747Z,5504.00
2019-02-19T05:57:53.719Z,5468.00
2019-02-19T05:58:53.709Z,5440.00
2019-02-19T05:59:53.703Z,5396.00
2019-02-19T06:00:53.690Z,5348.00
2019-02-19T06:01:53.680Z,5304.00
2019-02-19T06:02:53.688Z,5260.00
2019-02-19T06:03:53.662Z,5224.00
2019-02-19T06:04:53.650Z,5188.00
2019-02-19T06:05:53.638Z,5164.00
2019-02-19T06:06:53.637Z,5144.00
2019-02-19T06:07:53.615Z,5128.00
2019-02-19T06:08:53.710Z,5104.00
2019-02-19T06:09:53.595Z,5080.00
2019-02-19T06:10:53.595Z,5052.00
2019-02-19T06:11:53.577Z,5032.00
2019-02-19T06:12:53.563Z,5012.00
2019-02-19T06:13:53.553Z,4992.00
2019-02-19T06:14:53.540Z,4972.00
2019-02-19T06:15:53.532Z,4952.00
2019-02-19T06:16:58.439Z,4956.00
2019-02-19T06:17:53.508Z,4968.00
2019-02-19T06:18:53.505Z,4984.00
2019-02-19T06:19:53.489Z,4996.00
2019-02-19T06:20:53.478Z,5012.00
2019-02-19T06:21:53.465Z,5036.00
2019-02-19T06:22:53.457Z,5044.00
2019-02-19T06:23:53.446Z,5064.00
2019-02-19T06:24:53.438Z,5096.00
2019-02-19T06:25:53.427Z,5132.00
2019-02-19T06:26:53.414Z,5168.00
2019-02-19T06:27:53.403Z,5192.00
2019-02-19T06:28:53.394Z,5196.00
2019-02-19T06:29:53.386Z,5184.00
2019-02-19T06:30:53.370Z,5164.00
2019-02-19T06:31:53.363Z,5136.00
2019-02-19T06:32:53.352Z,5068.00
2019-02-19T06:33:53.342Z,5032.00
2019-02-19T06:34:53.329Z,4924.00
2019-02-19T06:35:53.321Z,4904.00
2019-02-19T06:36:53.313Z,4932.00
2019-02-19T06:37:53.307Z,4876.00
2019-02-19T06:38:53.289Z,4912.00
2019-02-19T06:39:53.275Z,5060.00
2019-02-19T06:40:53.270Z,5144.00
2019-02-19T06:41:53.257Z,5180.00
2019-02-19T06:42:53.248Z,5072.00
2019-02-19T06:43:53.238Z,5060.00
2019-02-19T06:44:53.226Z,5088.00
2019-02-19T06:45:53.222Z,5000.00
2019-02-19T06:46:53.207Z,4872.00
2019-02-19T06:47:53.194Z,4872.00
2019-02-19T06:48:53.183Z,4908.00
2019-02-19T06:49:53.175Z,4792.00
2019-02-19T06:50:53.162Z,4704.00
2019-02-19T06:51:53.159Z,4696.00
2019-02-19T06:52:53.150Z,4844.00
2019-02-19T06:53:53.131Z,5080.00
2019-02-19T06:54:53.118Z,5372.00
2019-02-19T06:55:53.109Z,5632.00
2019-02-19T06:56:53.111Z,5792.00
2019-02-19T06:57:53.087Z,5884.00
2019-02-19T06:58:53.081Z,5952.00
2019-02-19T06:59:53.070Z,6036.00
2019-02-19T07:00:53.058Z,6096.00
2019-02-19T07:01:53.047Z,6100.00
2019-02-19T07:02:53.035Z,6076.00
2019-02-19T07:03:53.024Z,6068.00
2019-02-19T07:04:53.019Z,6104.00
2019-02-19T07:05:53.004Z,6088.00
2019-02-19T07:06:52.996Z,6028.00
2019-02-19T07:07:52.989Z,6008.00
2019-02-19T07:08:53.075Z,5956.00
2019-02-19T07:09:53.064Z,5672.00
2019-02-19T07:10:52.951Z,5440.00
2019-02-19T07:11:52.941Z,5448.00
2019-02-19T07:12:52.933Z,5524.00
2019-02-19T07:13:52.923Z,5576.00
2019-02-19T07:14:52.908Z,5552.00
2019-02-19T07:15:52.902Z,5580.00
2019-02-19T07:16:52.887Z,5444.00
2019-02-19T07:17:52.877Z,5368.00
2019-02-19T07:18:52.867Z,5060.00
2019-02-19T07:19:52.855Z,4928.00
2019-02-19T07:20:52.846Z,4904.00
2019-02-19T07:21:52.847Z,4940.00
2019-02-19T07:22:52.822Z,5008.00
2019-02-19T07:23:52.812Z,5060.00
2019-02-19T07:24:52.801Z,5152.00
2019-02-19T07:25:52.795Z,5188.00
2019-02-19T07:26:52.781Z,5172.00
2019-02-19T07:27:52.771Z,5212.00
2019-02-19T07:28:52.767Z,5256.00
2019-02-19T07:29:52.751Z,5360.00
2019-02-19T07:30:52.741Z,5532.00
2019-02-19T07:31:52.731Z,5608.00
2019-02-19T07:32:52.722Z,5676.00
2019-02-19T07:33:52.708Z,5780.00
2019-02-19T07:34:52.699Z,5868.00
2019-02-19T07:35:52.689Z,6016.00
2019-02-19T07:36:52.677Z,6344.00
2019-02-19T07:37:52.669Z,6640.00
2019-02-19T07:38:52.655Z,6940.00
2019-02-19T07:39:52.645Z,7112.00
2019-02-19T07:40:52.638Z,7196.00
2019-02-19T07:41:52.624Z,7244.00
2019-02-19T07:42:52.613Z,7268.00
2019-02-19T07:43:54.193Z,7240.00
2019-02-19T07:44:52.595Z,7192.00
2019-02-19T07:45:52.583Z,7096.00
2019-02-19T07:46:52.569Z,7008.00
2019-02-19T07:47:52.560Z,6920.00
2019-02-19T07:48:52.549Z,6872.00
2019-02-19T07:49:52.542Z,6892.00
2019-02-19T07:50:52.527Z,6932.00
2019-02-19T07:51:52.520Z,6948.00
2019-02-19T07:52:52.512Z,6944.00
2019-02-19T07:53:52.501Z,6996.00
2019-02-19T07:54:52.489Z,7076.00
2019-02-19T07:55:52.478Z,7072.00
2019-02-19T07:56:52.473Z,6960.00
2019-02-19T07:57:52.466Z,6852.00
2019-02-19T07:58:52.447Z,6744.00
2019-02-19T07:59:52.436Z,6684.00
2019-02-19T08:00:52.425Z,6692.00
2019-02-19T08:01:52.414Z,6772.00
2019-02-19T08:02:52.407Z,6848.00
2019-02-19T08:03:52.391Z,6848.00
2019-02-19T08:04:52.380Z,6808.00
2019-02-19T08:05:52.369Z,6916.00
2019-02-19T08:06:52.363Z,6996.00
2019-02-19T08:07:52.347Z,6992.00
2019-02-19T08:08:52.442Z,6956.00
2019-02-19T08:09:52.431Z,6956.00
2019-02-19T08:10:52.318Z,6940.00
2019-02-19T08:11:52.308Z,6960.00
2019-02-19T08:12:52.303Z,6932.00
2019-02-19T08:13:52.288Z,6884.00
2019-02-19T08:14:52.275Z,6920.00
2019-02-19T08:15:52.266Z,6972.00
2019-02-19T08:16:52.250Z,6996.00
2019-02-19T08:17:52.243Z,7068.00
2019-02-19T08:18:52.232Z,7152.00
2019-02-19T08:19:52.222Z,7224.00
2019-02-19T08:20:52.220Z,7236.00
2019-02-19T08:21:52.207Z,7212.00
2019-02-19T08:22:52.190Z,7136.00
2019-02-19T08:23:52.179Z,7028.00
2019-02-19T08:24:52.168Z,6904.00
2019-02-19T08:25:52.160Z,6808.00
2019-02-19T08:26:52.160Z,6768.00
2019-02-19T08:27:52.136Z,6768.00
2019-02-19T08:28:52.131Z,6824.00
2019-02-19T08:29:52.122Z,6924.00
2019-02-19T08:30:52.112Z,6996.00
2019-02-19T08:31:52.098Z,7056.00
2019-02-19T08:32:52.086Z,7152.00
2019-02-19T08:33:52.077Z,7224.00
2019-02-19T08:34:52.067Z,7232.00
2019-02-19T08:35:52.154Z,7356.00
2019-02-19T08:36:52.045Z,7416.00
2019-02-19T08:37:52.035Z,7444.00
2019-02-19T08:38:52.124Z,7408.00
2019-02-19T08:39:52.015Z,7292.00
2019-02-19T08:40:52.002Z,7184.00
2019-02-19T08:41:51.995Z,7060.00
2019-02-19T08:42:51.979Z,6968.00
2019-02-19T08:43:51.978Z,6836.00
2019-02-19T08:44:51.961Z,6684.00
2019-02-19T08:45:51.951Z,6556.00
2019-02-19T08:46:51.937Z,6452.00
2019-02-19T08:47:51.927Z,6336.00
2019-02-19T08:48:51.918Z,6248.00
2019-02-19T08:49:51.907Z,6188.00
2019-02-19T08:50:51.897Z,6084.00
2019-02-19T08:51:56.122Z,6044.00
2019-02-19T08:52:51.878Z,6044.00
2019-02-19T08:53:51.863Z,6088.00
2019-02-19T08:54:51.853Z,6140.00
2019-02-19T08:55:51.843Z,6220.00
2019-02-19T08:56:51.832Z,6304.00
2019-02-19T08:57:51.823Z,6424.00
2019-02-19T08:58:51.812Z,6528.00
2019-02-19T08:59:51.800Z,6680.00
2019-02-19T09:00:51.789Z,6880.00
2019-02-19T09:01:51.782Z,7056.00
2019-02-19T09:02:51.772Z,7188.00
2019-02-19T09:03:51.755Z,7248.00
2019-02-19T09:04:51.753Z,7232.00
2019-02-19T09:05:51.738Z,7216.00
2019-02-19T09:06:51.731Z,7128.00
2019-02-19T09:07:51.714Z,7060.00
2019-02-19T09:08:51.759Z,7044.00
2019-02-19T09:09:52.099Z,7020.00
2019-02-19T09:10:51.687Z,6992.00
2019-02-19T09:11:51.673Z,6964.00
2019-02-19T09:12:51.665Z,6920.00
2019-02-19T09:13:51.652Z,6860.00
2019-02-19T09:14:51.643Z,6804.00
2019-02-19T09:15:51.634Z,6776.00
2019-02-19T09:16:51.621Z,6732.00
2019-02-19T09:17:52.413Z,6664.00
2019-02-19T09:18:51.599Z,6544.00
2019-02-19T09:19:51.590Z,6356.00
2019-02-19T09:20:51.580Z,6232.00
2019-02-19T09:21:51.568Z,6096.00
2019-02-19T09:22:51.559Z,5952.00
2019-02-19T09:23:51.548Z,5856.00
2019-02-19T09:24:51.543Z,5808.00
2019-02-19T09:25:51.524Z,5704.00
2019-02-19T09:26:51.515Z,5652.00
2019-02-19T09:27:51.505Z,5616.00
2019-02-19T09:28:51.492Z,5612.00
2019-02-19T09:29:51.487Z,5628.00
2019-02-19T09:30:51.470Z,5636.00
2019-02-19T09:31:51.458Z,5660.00
2019-02-19T09:32:51.446Z,5660.00
2019-02-19T09:33:51.435Z,5636.00
2019-02-19T09:34:52.700Z,5616.00
2019-02-19T09:35:51.415Z,5612.00
2019-02-19T09:36:51.408Z,5600.00
2019-02-19T09:37:51.394Z,5588.00
2019-02-19T09:38:51.385Z,5588.00
2019-02-19T09:39:51.380Z,5612.00
2019-02-19T09:40:51.366Z,5660.00
2019-02-19T09:41:51.349Z,5724.00
2019-02-19T09:42:51.339Z,5772.00
2019-02-19T09:43:51.330Z,5804.00
2019-02-19T09:44:51.319Z,5808.00
2019-02-19T09:45:51.309Z,5796.00
2019-02-19T09:46:51.302Z,5764.00
2019-02-19T09:48:00.808Z,5724.00
2019-02-19T09:48:52.377Z,5684.00
2019-02-19T09:49:51.273Z,5632.00
2019-02-19T09:50:51.252Z,5580.00
2019-02-19T09:51:51.240Z,5520.00
2019-02-19T09:52:59.489Z,5440.00
2019-02-19T09:53:52.333Z,5344.00
2019-02-19T09:54:51.211Z,5252.00
2019-02-19T09:55:51.201Z,5168.00
2019-02-19T09:56:51.187Z,5088.00
2019-02-19T09:57:51.181Z,5016.00
2019-02-19T09:58:51.168Z,4956.00
2019-02-19T09:59:51.154Z,4908.00
2019-02-19T10:00:51.148Z,4860.00
2019-02-19T10:01:51.131Z,4832.00
2019-02-19T10:02:51.135Z,4820.00
2019-02-19T10:03:51.112Z,4820.00
2019-02-19T10:04:51.103Z,4820.00
2019-02-19T10:05:51.091Z,4820.00
2019-02-19T10:06:51.080Z,4824.00
2019-02-19T10:07:51.078Z,4824.00
2019-02-19T10:08:51.062Z,4844.00
2019-02-19T10:09:51.049Z,4888.00
2019-02-19T10:10:51.135Z,4952.00
2019-02-19T10:11:51.028Z,5032.00
2019-02-19T10:12:51.016Z,5108.00
2019-02-19T10:13:51.005Z,5200.00
2019-02-19T10:14:50.992Z,5328.00
2019-02-19T10:15:50.983Z,5460.00
2019-02-19T10:16:50.978Z,5564.00
2019-02-19T10:17:50.960Z,5684.00
2019-02-19T10:18:50.952Z,5816.00
2019-02-19T10:19:50.946Z,5936.00
2019-02-19T10:20:51.875Z,6004.00
2019-02-19T10:21:50.924Z,5992.00
2019-02-19T10:22:50.906Z,5976.00
2019-02-19T10:23:50.893Z,5904.00
2019-02-19T10:24:52.396Z,5776.00
2019-02-19T10:25:50.879Z,5616.00
2019-02-19T10:26:50.863Z,5500.00
2019-02-19T10:27:50.857Z,5372.00
2019-02-19T10:28:50.846Z,5244.00
2019-02-19T10:29:50.844Z,5120.00
2019-02-19T10:30:50.826Z,5004.00
2019-02-19T10:31:50.815Z,4908.00
2019-02-19T10:32:50.800Z,4804.00
2019-02-19T10:33:50.792Z,4676.00
2019-02-19T10:34:50.777Z,4588.00
2019-02-19T10:35:50.772Z,4540.00
2019-02-19T10:36:50.762Z,4520.00
2019-02-19T10:37:51.802Z,4532.00
2019-02-19T10:38:50.737Z,4568.00
2019-02-19T10:39:50.724Z,4596.00
2019-02-19T10:40:50.712Z,4608.00
2019-02-19T10:41:50.703Z,4620.00
2019-02-19T10:42:50.694Z,4620.00
2019-02-19T10:43:50.684Z,4632.00
2019-02-19T10:44:50.672Z,4676.00
2019-02-19T10:45:50.662Z,4724.00
2019-02-19T10:46:50.652Z,4760.00
2019-02-19T10:47:50.637Z,4808.00
2019-02-19T10:48:50.631Z,4892.00
2019-02-19T10:49:50.618Z,4964.00
2019-02-19T10:50:50.606Z,4964.00
2019-02-19T10:51:50.598Z,4928.00
2019-02-19T10:52:51.746Z,4944.00
2019-02-19T10:53:50.570Z,4896.00
2019-02-19T10:54:51.208Z,4800.00
2019-02-19T10:55:50.552Z,4688.00
2019-02-19T10:56:50.541Z,4584.00
2019-02-19T10:57:50.538Z,4520.00
2019-02-19T10:58:50.523Z,4444.00
2019-02-19T10:59:50.509Z,4384.00
2019-02-19T11:00:50.500Z,4324.00
2019-02-19T11:01:50.493Z,4244.00
2019-02-19T11:02:50.490Z,4248.00
2019-02-19T11:03:50.478Z,4252.00
2019-02-19T11:04:50.468Z,4096.00
2019-02-19T11:05:50.447Z,3976.00
2019-02-19T11:06:50.447Z,3868.00
2019-02-19T11:07:50.431Z,3768.00
2019-02-19T11:08:50.417Z,3672.00
2019-02-19T11:09:50.408Z,3656.00
2019-02-19T11:10:50.928Z,3640.00
2019-02-19T11:11:50.489Z,3608.00
2019-02-19T11:12:50.381Z,3608.00
2019-02-19T11:13:50.362Z,3628.00
2019-02-19T11:14:50.352Z,3688.00
2019-02-19T11:15:50.340Z,3692.00
2019-02-19T11:16:50.339Z,3752.00
2019-02-19T11:17:50.323Z,3832.00
2019-02-19T11:18:50.311Z,3860.00
2019-02-19T11:19:50.311Z,3876.00
2019-02-19T11:20:50.286Z,3900.00
2019-02-19T11:21:50.280Z,3916.00
2019-02-19T11:22:50.267Z,3916.00
2019-02-19T11:23:50.253Z,3904.00
2019-02-19T11:24:50.243Z,3892.00
2019-02-19T11:25:50.236Z,3860.00
2019-02-19T11:26:50.226Z,3848.00
2019-02-19T11:27:50.211Z,3836.00
2019-02-19T11:28:50.208Z,3828.00
2019-02-19T11:29:50.198Z,3864.00
2019-02-19T11:30:50.182Z,3876.00
2019-02-19T11:31:50.170Z,3872.00
2019-02-19T11:32:50.159Z,3860.00
2019-02-19T11:33:50.143Z,3836.00
2019-02-19T11:34:50.144Z,3804.00
2019-02-19T11:35:50.126Z,3768.00
2019-02-19T11:36:50.124Z,3716.00
2019-02-19T11:37:50.105Z,3672.00
2019-02-19T11:38:50.092Z,3628.00
2019-02-19T11:39:50.084Z,3588.00
2019-02-19T11:40:50.071Z,3540.00
2019-02-19T11:41:50.062Z,3484.00
2019-02-19T11:42:50.050Z,3420.00
2019-02-19T11:43:50.048Z,3344.00
2019-02-19T11:44:50.029Z,3308.00
2019-02-19T11:45:50.025Z,3264.00
2019-02-19T11:46:50.004Z,3200.00
2019-02-19T11:47:49.996Z,3156.00
2019-02-19T11:48:49.984Z,3104.00
2019-02-19T11:49:49.972Z,3044.00
2019-02-19T11:50:49.964Z,2988.00
2019-02-19T11:51:49.951Z,2900.00
2019-02-19T11:52:49.944Z,2800.00
2019-02-19T11:53:49.933Z,2668.00
2019-02-19T11:54:49.917Z,2496.00
2019-02-19T11:55:49.905Z,2392.00
2019-02-19T11:56:49.900Z,2340.00
2019-02-19T11:57:49.887Z,2304.00
2019-02-19T11:58:49.887Z,2252.00
2019-02-19T11:59:49.861Z,2204.00
2019-02-19T12:00:49.852Z,2172.00
2019-02-19T12:01:49.846Z,2144.00
2019-02-19T12:02:49.831Z,2116.00
2019-02-19T12:03:49.831Z,2092.00
2019-02-19T12:04:49.810Z,2068.00
2019-02-19T12:05:49.795Z,2040.00
2019-02-19T12:06:49.787Z,2004.00
2019-02-19T12:07:49.778Z,1964.00
2019-02-19T12:08:49.763Z,1920.00
2019-02-19T12:09:49.755Z,1872.00
2019-02-19T12:10:49.741Z,1828.00
2019-02-19T12:11:49.828Z,1792.00
2019-02-19T12:12:49.719Z,1752.00
2019-02-19T12:13:49.712Z,1700.00
2019-02-19T12:14:49.702Z,1644.00
2019-02-19T12:15:49.686Z,1580.00
2019-02-19T12:16:49.676Z,1532.00
2019-02-19T12:17:49.682Z,1476.00